sensor_id;sensor_type;location;lat;lon;timestamp;temperature;humidity
18412;DHT22;27097;51.738;19.472;2023-05-03T00:02:08;21.40;75.10
18412;DHT22;27097;51.738;19.472;2023-05-03T00:04:36;21.50;80.90
18412;DHT22;27097;51.738;19.472;2023-05-03T00:07:03;21.50;84.90
18412;DHT22;27097;51.738;19.472;2023-05-03T00:09:32;21.50;84.70
18412;DHT22;27097;51.738;19.472;2023-05-03T00:11:59;21.60;87.30
18412;DHT22;27097;51.738;19.472;2023-05-03T00:14:26;21.60;88.40
18412;DHT22;27097;51.738;19.472;2023-05-03T00:16:53;21.60;89.50
18412;DHT22;27097;51.738;19.472;2023-05-03T00:19:22;21.60;90.00
18412;DHT22;27097;51.738;19.472;2023-05-03T00:21:51;21.70;90.10
18412;DHT22;27097;51.738;19.472;2023-05-03T00:24:18;21.70;90.20
18412;DHT22;27097;51.738;19.472;2023-05-03T00:26:45;21.70;90.20
18412;DHT22;27097;51.738;19.472;2023-05-03T00:29:12;21.70;90.40
18412;DHT22;27097;51.738;19.472;2023-05-03T00:31:39;21.70;90.40
18412;DHT22;27097;51.738;19.472;2023-05-03T00:34:06;21.70;90.40
18412;DHT22;27097;51.738;19.472;2023-05-03T00:36:34;21.70;90.50
18412;DHT22;27097;51.738;19.472;2023-05-03T00:39:01;21.70;90.50
18412;DHT22;27097;51.738;19.472;2023-05-03T00:41:28;21.70;90.60
18412;DHT22;27097;51.738;19.472;2023-05-03T00:43:55;21.70;90.60
18412;DHT22;27097;51.738;19.472;2023-05-03T00:46:22;21.70;90.60
18412;DHT22;27097;51.738;19.472;2023-05-03T00:48:49;21.70;90.60
18412;DHT22;27097;51.738;19.472;2023-05-03T00:51:16;21.80;90.70
18412;DHT22;27097;51.738;19.472;2023-05-03T00:53:46;21.80;90.70
18412;DHT22;27097;51.738;19.472;2023-05-03T00:56:17;21.80;90.70
18412;DHT22;27097;51.738;19.472;2023-05-03T00:58:45;21.80;90.70
18412;DHT22;27097;51.738;19.472;2023-05-03T01:01:12;21.80;90.70
18412;DHT22;27097;51.738;19.472;2023-05-03T01:03:39;21.80;90.70
18412;DHT22;27097;51.738;19.472;2023-05-03T01:06:12;21.80;90.70
18412;DHT22;27097;51.738;19.472;2023-05-03T01:08:43;21.80;90.70
18412;DHT22;27097;51.738;19.472;2023-05-03T01:11:18;21.80;90.80
18412;DHT22;27097;51.738;19.472;2023-05-03T01:13:54;21.80;90.70
18412;DHT22;27097;51.738;19.472;2023-05-03T01:16:27;21.80;90.70
18412;DHT22;27097;51.738;19.472;2023-05-03T01:18:57;21.80;91.10
18412;DHT22;27097;51.738;19.472;2023-05-03T01:21:27;21.80;90.70
18412;DHT22;27097;51.738;19.472;2023-05-03T01:23:59;21.80;90.60
18412;DHT22;27097;51.738;19.472;2023-05-03T01:26:30;21.80;90.80
18412;DHT22;27097;51.738;19.472;2023-05-03T01:28:58;21.80;90.70
18412;DHT22;27097;51.738;19.472;2023-05-03T01:31:30;21.80;90.70
18412;DHT22;27097;51.738;19.472;2023-05-03T01:34:17;21.80;90.70
18412;DHT22;27097;51.738;19.472;2023-05-03T01:36:45;21.80;90.70
18412;DHT22;27097;51.738;19.472;2023-05-03T01:39:19;21.80;90.70
18412;DHT22;27097;51.738;19.472;2023-05-03T01:41:49;21.80;90.70
18412;DHT22;27097;51.738;19.472;2023-05-03T01:44:17;21.80;90.70
18412;DHT22;27097;51.738;19.472;2023-05-03T01:46:44;21.80;90.80
18412;DHT22;27097;51.738;19.472;2023-05-03T01:49:11;21.80;90.80
18412;DHT22;27097;51.738;19.472;2023-05-03T01:51:39;21.80;90.70
18412;DHT22;27097;51.738;19.472;2023-05-03T01:54:06;21.80;90.90
18412;DHT22;27097;51.738;19.472;2023-05-03T01:56:33;21.80;90.80
18412;DHT22;27097;51.738;19.472;2023-05-03T01:59:05;21.80;90.80
18412;DHT22;27097;51.738;19.472;2023-05-03T02:01:32;21.80;90.80
18412;DHT22;27097;51.738;19.472;2023-05-03T02:04:02;21.80;90.90
18412;DHT22;27097;51.738;19.472;2023-05-03T02:06:29;21.80;90.80
18412;DHT22;27097;51.738;19.472;2023-05-03T02:08:59;21.80;90.80
18412;DHT22;27097;51.738;19.472;2023-05-03T02:11:26;21.80;90.70
18412;DHT22;27097;51.738;19.472;2023-05-03T02:13:52;21.80;90.80
18412;DHT22;27097;51.738;19.472;2023-05-03T02:16:21;21.80;90.80
18412;DHT22;27097;51.738;19.472;2023-05-03T02:18:47;21.80;90.80
18412;DHT22;27097;51.738;19.472;2023-05-03T02:21:16;21.80;90.80
18412;DHT22;27097;51.738;19.472;2023-05-03T02:23:48;21.80;90.70
18412;DHT22;27097;51.738;19.472;2023-05-03T02:26:15;21.80;90.80
18412;DHT22;27097;51.738;19.472;2023-05-03T02:28:42;21.80;90.90
18412;DHT22;27097;51.738;19.472;2023-05-03T02:31:09;21.80;91.00
18412;DHT22;27097;51.738;19.472;2023-05-03T02:33:39;21.80;91.00
18412;DHT22;27097;51.738;19.472;2023-05-03T02:36:06;21.80;91.10
18412;DHT22;27097;51.738;19.472;2023-05-03T02:38:33;21.80;91.10
18412;DHT22;27097;51.738;19.472;2023-05-03T02:41:00;21.80;91.00
18412;DHT22;27097;51.738;19.472;2023-05-03T02:43:27;21.80;91.00
18412;DHT22;27097;51.738;19.472;2023-05-03T02:45:54;21.80;91.00
18412;DHT22;27097;51.738;19.472;2023-05-03T02:48:21;21.80;91.10
18412;DHT22;27097;51.738;19.472;2023-05-03T02:50:49;21.80;91.00
18412;DHT22;27097;51.738;19.472;2023-05-03T02:53:16;21.80;91.40
18412;DHT22;27097;51.738;19.472;2023-05-03T02:55:43;21.80;90.90
18412;DHT22;27097;51.738;19.472;2023-05-03T02:58:11;21.80;91.00
18412;DHT22;27097;51.738;19.472;2023-05-03T03:00:38;21.80;91.10
18412;DHT22;27097;51.738;19.472;2023-05-03T03:03:04;21.80;91.10
18412;DHT22;27097;51.738;19.472;2023-05-03T03:05:31;21.80;91.10
18412;DHT22;27097;51.738;19.472;2023-05-03T03:08:00;21.80;91.00
18412;DHT22;27097;51.738;19.472;2023-05-03T03:10:26;21.80;91.00
18412;DHT22;27097;51.738;19.472;2023-05-03T03:12:53;21.80;90.90
18412;DHT22;27097;51.738;19.472;2023-05-03T03:15:20;21.80;91.00
18412;DHT22;27097;51.738;19.472;2023-05-03T03:17:47;21.80;91.10
18412;DHT22;27097;51.738;19.472;2023-05-03T03:20:14;21.80;91.00
18412;DHT22;27097;51.738;19.472;2023-05-03T03:22:51;21.80;90.90
18412;DHT22;27097;51.738;19.472;2023-05-03T03:25:30;21.80;91.00
18412;DHT22;27097;51.738;19.472;2023-05-03T03:27:56;21.80;91.20
18412;DHT22;27097;51.738;19.472;2023-05-03T03:33:45;21.80;90.90
18412;DHT22;27097;51.738;19.472;2023-05-03T03:36:53;21.80;91.00
18412;DHT22;27097;51.738;19.472;2023-05-03T03:39:33;21.80;91.00
18412;DHT22;27097;51.738;19.472;2023-05-03T03:43:35;21.80;91.00
18412;DHT22;27097;51.738;19.472;2023-05-03T03:45:08;21.80;90.90
18412;DHT22;27097;51.738;19.472;2023-05-03T03:48:00;21.80;91.00
18412;DHT22;27097;51.738;19.472;2023-05-03T03:50:40;21.80;91.10
18412;DHT22;27097;51.738;19.472;2023-05-03T03:53:27;21.80;90.90
18412;DHT22;27097;51.738;19.472;2023-05-03T03:56:10;21.80;91.00
18412;DHT22;27097;51.738;19.472;2023-05-03T03:58:55;21.80;90.90
18412;DHT22;27097;51.738;19.472;2023-05-03T04:01:22;21.90;91.00
18412;DHT22;27097;51.738;19.472;2023-05-03T04:03:52;21.90;90.90
18412;DHT22;27097;51.738;19.472;2023-05-03T04:06:32;21.90;90.90
18412;DHT22;27097;51.738;19.472;2023-05-03T04:08:59;21.90;90.80
18412;DHT22;27097;51.738;19.472;2023-05-03T04:11:45;21.90;90.80
18412;DHT22;27097;51.738;19.472;2023-05-03T04:14:32;21.90;90.90
18412;DHT22;27097;51.738;19.472;2023-05-03T04:17:22;21.90;91.00
18412;DHT22;27097;51.738;19.472;2023-05-03T04:20:15;21.90;90.90
18412;DHT22;27097;51.738;19.472;2023-05-03T04:25:23;21.90;90.90
18412;DHT22;27097;51.738;19.472;2023-05-03T04:27:54;21.90;90.90
18412;DHT22;27097;51.738;19.472;2023-05-03T04:30:33;21.90;90.90
18412;DHT22;27097;51.738;19.472;2023-05-03T04:33:00;21.90;90.90
18412;DHT22;27097;51.738;19.472;2023-05-03T04:35:28;21.90;90.90
18412;DHT22;27097;51.738;19.472;2023-05-03T04:40:29;21.90;90.90
18412;DHT22;27097;51.738;19.472;2023-05-03T04:46:19;21.90;91.00
18412;DHT22;27097;51.738;19.472;2023-05-03T04:48:45;21.90;90.90
18412;DHT22;27097;51.738;19.472;2023-05-03T04:51:15;21.90;90.80
18412;DHT22;27097;51.738;19.472;2023-05-03T04:53:55;21.90;90.90
18412;DHT22;27097;51.738;19.472;2023-05-03T05:03:23;21.90;90.80
18412;DHT22;27097;51.738;19.472;2023-05-03T05:05:50;22.00;90.70
18412;DHT22;27097;51.738;19.472;2023-05-03T05:08:17;22.00;90.60
18412;DHT22;27097;51.738;19.472;2023-05-03T05:10:45;22.00;90.70
18412;DHT22;27097;51.738;19.472;2023-05-03T05:13:14;22.00;90.60
18412;DHT22;27097;51.738;19.472;2023-05-03T05:15:41;22.00;90.70
18412;DHT22;27097;51.738;19.472;2023-05-03T05:18:08;22.00;90.50
18412;DHT22;27097;51.738;19.472;2023-05-03T05:20:36;22.00;90.40
18412;DHT22;27097;51.738;19.472;2023-05-03T05:23:03;22.00;90.40
18412;DHT22;27097;51.738;19.472;2023-05-03T05:25:31;22.00;90.40
18412;DHT22;27097;51.738;19.472;2023-05-03T05:27:58;22.00;90.60
18412;DHT22;27097;51.738;19.472;2023-05-03T05:30:24;22.00;90.40
18412;DHT22;27097;51.738;19.472;2023-05-03T05:32:51;22.00;90.40
18412;DHT22;27097;51.738;19.472;2023-05-03T05:35:18;22.00;90.40
18412;DHT22;27097;51.738;19.472;2023-05-03T05:37:46;22.00;90.50
18412;DHT22;27097;51.738;19.472;2023-05-03T05:40:13;22.00;90.40
18412;DHT22;27097;51.738;19.472;2023-05-03T05:42:40;22.10;90.90
18412;DHT22;27097;51.738;19.472;2023-05-03T05:45:08;22.00;90.60
18412;DHT22;27097;51.738;19.472;2023-05-03T05:47:35;22.00;90.50
18412;DHT22;27097;51.738;19.472;2023-05-03T05:50:02;22.00;90.80
18412;DHT22;27097;51.738;19.472;2023-05-03T05:52:29;22.00;90.60
18412;DHT22;27097;51.738;19.472;2023-05-03T05:54:57;22.10;90.50
18412;DHT22;27097;51.738;19.472;2023-05-03T05:57:24;22.00;90.50
18412;DHT22;27097;51.738;19.472;2023-05-03T05:59:51;22.10;90.50
18412;DHT22;27097;51.738;19.472;2023-05-03T06:02:18;22.10;90.50
18412;DHT22;27097;51.738;19.472;2023-05-03T06:04:49;22.10;90.90
18412;DHT22;27097;51.738;19.472;2023-05-03T06:07:16;22.10;90.50
18412;DHT22;27097;51.738;19.472;2023-05-03T06:09:43;22.10;90.40
18412;DHT22;27097;51.738;19.472;2023-05-03T06:12:11;22.10;90.40
18412;DHT22;27097;51.738;19.472;2023-05-03T06:14:38;22.10;90.40
18412;DHT22;27097;51.738;19.472;2023-05-03T06:17:04;22.10;90.40
18412;DHT22;27097;51.738;19.472;2023-05-03T06:19:33;22.10;90.30
18412;DHT22;27097;51.738;19.472;2023-05-03T06:22:01;22.10;90.40
18412;DHT22;27097;51.738;19.472;2023-05-03T06:24:28;22.10;90.40
18412;DHT22;27097;51.738;19.472;2023-05-03T06:26:57;22.10;90.30
18412;DHT22;27097;51.738;19.472;2023-05-03T06:29:26;22.10;90.30
18412;DHT22;27097;51.738;19.472;2023-05-03T06:31:53;22.10;89.60
18412;DHT22;27097;51.738;19.472;2023-05-03T06:34:20;21.90;78.20
18412;DHT22;27097;51.738;19.472;2023-05-03T06:36:47;21.80;88.80
18412;DHT22;27097;51.738;19.472;2023-05-03T06:39:15;21.90;90.00
18412;DHT22;27097;51.738;19.472;2023-05-03T06:41:42;21.90;90.00
18412;DHT22;27097;51.738;19.472;2023-05-03T06:44:09;21.90;89.60
18412;DHT22;27097;51.738;19.472;2023-05-03T06:46:37;21.90;88.90
18412;DHT22;27097;51.738;19.472;2023-05-03T06:49:04;21.90;89.30
18412;DHT22;27097;51.738;19.472;2023-05-03T06:51:31;21.90;88.00
18412;DHT22;27097;51.738;19.472;2023-05-03T06:53:59;21.90;88.30
18412;DHT22;27097;51.738;19.472;2023-05-03T06:56:31;21.90;88.70
18412;DHT22;27097;51.738;19.472;2023-05-03T06:58:58;21.90;88.70
18412;DHT22;27097;51.738;19.472;2023-05-03T07:01:25;21.90;85.80
18412;DHT22;27097;51.738;19.472;2023-05-03T07:03:53;21.90;84.80
18412;DHT22;27097;51.738;19.472;2023-05-03T07:06:30;21.90;84.50
18412;DHT22;27097;51.738;19.472;2023-05-03T07:08:57;21.80;83.40
18412;DHT22;27097;51.738;19.472;2023-05-03T07:11:24;21.80;82.00
18412;DHT22;27097;51.738;19.472;2023-05-03T07:13:51;21.80;81.10
18412;DHT22;27097;51.738;19.472;2023-05-03T07:16:18;21.80;81.10
18412;DHT22;27097;51.738;19.472;2023-05-03T07:18:46;21.80;84.50
18412;DHT22;27097;51.738;19.472;2023-05-03T07:21:14;21.80;85.40
18412;DHT22;27097;51.738;19.472;2023-05-03T07:23:42;21.80;85.40
18412;DHT22;27097;51.738;19.472;2023-05-03T07:26:10;21.80;85.20
18412;DHT22;27097;51.738;19.472;2023-05-03T07:28:36;21.90;85.10
18412;DHT22;27097;51.738;19.472;2023-05-03T07:31:03;21.90;84.70
18412;DHT22;27097;51.738;19.472;2023-05-03T07:33:33;21.90;84.60
18412;DHT22;27097;51.738;19.472;2023-05-03T07:36:00;21.90;82.70
18412;DHT22;27097;51.738;19.472;2023-05-03T07:38:29;22.00;83.30
18412;DHT22;27097;51.738;19.472;2023-05-03T07:40:56;22.00;82.60
18412;DHT22;27097;51.738;19.472;2023-05-03T07:43:23;22.10;82.20
18412;DHT22;27097;51.738;19.472;2023-05-03T07:45:50;22.10;81.70
18412;DHT22;27097;51.738;19.472;2023-05-03T07:48:17;22.20;82.20
18412;DHT22;27097;51.738;19.472;2023-05-03T07:50:44;22.30;81.40
18412;DHT22;27097;51.738;19.472;2023-05-03T07:53:13;22.40;82.40
18412;DHT22;27097;51.738;19.472;2023-05-03T07:55:41;22.50;82.00
18412;DHT22;27097;51.738;19.472;2023-05-03T07:58:08;22.50;82.10
18412;DHT22;27097;51.738;19.472;2023-05-03T08:00:35;22.60;81.70
18412;DHT22;27097;51.738;19.472;2023-05-03T08:03:02;22.60;81.10
18412;DHT22;27097;51.738;19.472;2023-05-03T08:05:30;22.60;80.70
18412;DHT22;27097;51.738;19.472;2023-05-03T08:08:00;22.70;79.40
18412;DHT22;27097;51.738;19.472;2023-05-03T08:10:30;22.70;78.70
18412;DHT22;27097;51.738;19.472;2023-05-03T08:13:03;22.80;78.90
18412;DHT22;27097;51.738;19.472;2023-05-03T08:15:30;22.70;78.00
18412;DHT22;27097;51.738;19.472;2023-05-03T08:17:58;22.80;77.30
18412;DHT22;27097;51.738;19.472;2023-05-03T08:20:25;22.80;77.20
18412;DHT22;27097;51.738;19.472;2023-05-03T08:22:53;22.80;76.80
18412;DHT22;27097;51.738;19.472;2023-05-03T08:25:21;22.80;76.70
18412;DHT22;27097;51.738;19.472;2023-05-03T08:27:49;22.80;76.00
18412;DHT22;27097;51.738;19.472;2023-05-03T08:30:17;22.80;76.70
18412;DHT22;27097;51.738;19.472;2023-05-03T08:32:46;22.80;76.00
18412;DHT22;27097;51.738;19.472;2023-05-03T08:35:13;22.80;76.60
18412;DHT22;27097;51.738;19.472;2023-05-03T08:37:41;22.70;75.10
18412;DHT22;27097;51.738;19.472;2023-05-03T08:40:09;22.80;75.00
18412;DHT22;27097;51.738;19.472;2023-05-03T08:42:39;22.70;75.30
18412;DHT22;27097;51.738;19.472;2023-05-03T08:45:09;22.70;74.70
18412;DHT22;27097;51.738;19.472;2023-05-03T08:47:38;22.70;74.70
18412;DHT22;27097;51.738;19.472;2023-05-03T08:50:07;22.70;73.50
18412;DHT22;27097;51.738;19.472;2023-05-03T08:52:34;22.70;73.90
18412;DHT22;27097;51.738;19.472;2023-05-03T08:55:02;22.70;74.40
18412;DHT22;27097;51.738;19.472;2023-05-03T08:57:29;22.70;74.70
18412;DHT22;27097;51.738;19.472;2023-05-03T08:59:57;22.70;74.90
18412;DHT22;27097;51.738;19.472;2023-05-03T09:02:26;22.70;74.50
18412;DHT22;27097;51.738;19.472;2023-05-03T09:04:54;22.80;74.10
18412;DHT22;27097;51.738;19.472;2023-05-03T09:07:22;22.80;74.20
18412;DHT22;27097;51.738;19.472;2023-05-03T09:09:49;22.80;74.30
18412;DHT22;27097;51.738;19.472;2023-05-03T09:12:32;22.80;74.30
18412;DHT22;27097;51.738;19.472;2023-05-03T09:15:00;22.80;75.00
18412;DHT22;27097;51.738;19.472;2023-05-03T09:17:28;22.70;74.80
18412;DHT22;27097;51.738;19.472;2023-05-03T09:19:57;22.70;74.50
18412;DHT22;27097;51.738;19.472;2023-05-03T09:22:26;22.70;74.50
18412;DHT22;27097;51.738;19.472;2023-05-03T09:24:54;22.80;74.90
18412;DHT22;27097;51.738;19.472;2023-05-03T09:27:21;22.80;74.90
18412;DHT22;27097;51.738;19.472;2023-05-03T09:29:49;22.90;75.10
18412;DHT22;27097;51.738;19.472;2023-05-03T09:32:16;22.90;74.80
18412;DHT22;27097;51.738;19.472;2023-05-03T09:34:44;22.90;75.00
18412;DHT22;27097;51.738;19.472;2023-05-03T09:37:12;23.00;75.40
18412;DHT22;27097;51.738;19.472;2023-05-03T09:39:40;23.00;75.80
18412;DHT22;27097;51.738;19.472;2023-05-03T09:42:11;23.00;75.90
18412;DHT22;27097;51.738;19.472;2023-05-03T09:44:46;23.00;75.70
18412;DHT22;27097;51.738;19.472;2023-05-03T09:47:16;23.00;76.40
18412;DHT22;27097;51.738;19.472;2023-05-03T09:49:43;23.00;76.10
18412;DHT22;27097;51.738;19.472;2023-05-03T09:52:12;23.00;76.20
18412;DHT22;27097;51.738;19.472;2023-05-03T09:54:39;23.00;77.30
18412;DHT22;27097;51.738;19.472;2023-05-03T09:57:07;23.00;77.10
18412;DHT22;27097;51.738;19.472;2023-05-03T09:59:36;23.00;77.30
18412;DHT22;27097;51.738;19.472;2023-05-03T10:02:05;22.90;77.40
18412;DHT22;27097;51.738;19.472;2023-05-03T10:04:40;22.90;77.60
18412;DHT22;27097;51.738;19.472;2023-05-03T10:07:13;23.00;78.20
18412;DHT22;27097;51.738;19.472;2023-05-03T10:09:43;23.10;78.40
18412;DHT22;27097;51.738;19.472;2023-05-03T10:12:12;23.10;78.10
18412;DHT22;27097;51.738;19.472;2023-05-03T10:14:42;23.10;77.60
18412;DHT22;27097;51.738;19.472;2023-05-03T10:17:15;23.10;76.90
18412;DHT22;27097;51.738;19.472;2023-05-03T10:19:48;23.10;77.40
18412;DHT22;27097;51.738;19.472;2023-05-03T10:22:18;23.10;77.00
18412;DHT22;27097;51.738;19.472;2023-05-03T10:25:06;23.10;77.20
18412;DHT22;27097;51.738;19.472;2023-05-03T10:27:41;23.10;77.70
18412;DHT22;27097;51.738;19.472;2023-05-03T10:30:29;23.20;78.50
18412;DHT22;27097;51.738;19.472;2023-05-03T10:32:57;23.20;79.50
18412;DHT22;27097;51.738;19.472;2023-05-03T10:35:28;23.30;81.60
18412;DHT22;27097;51.738;19.472;2023-05-03T10:37:57;23.30;80.00
18412;DHT22;27097;51.738;19.472;2023-05-03T10:40:40;23.20;79.50
18412;DHT22;27097;51.738;19.472;2023-05-03T10:43:09;23.30;80.10
18412;DHT22;27097;51.738;19.472;2023-05-03T10:45:55;23.30;80.70
18412;DHT22;27097;51.738;19.472;2023-05-03T10:48:22;23.30;79.60
18412;DHT22;27097;51.738;19.472;2023-05-03T10:50:50;23.20;77.60
18412;DHT22;27097;51.738;19.472;2023-05-03T10:53:38;23.20;71.10
18412;DHT22;27097;51.738;19.472;2023-05-03T10:56:06;23.30;70.00
18412;DHT22;27097;51.738;19.472;2023-05-03T10:58:38;23.30;69.00
18412;DHT22;27097;51.738;19.472;2023-05-03T11:01:09;23.40;67.60
18412;DHT22;27097;51.738;19.472;2023-05-03T11:03:45;23.50;64.80
18412;DHT22;27097;51.738;19.472;2023-05-03T11:09:50;23.50;66.00
18412;DHT22;27097;51.738;19.472;2023-05-03T11:12:17;23.50;62.80
18412;DHT22;27097;51.738;19.472;2023-05-03T11:14:45;23.50;64.70
18412;DHT22;27097;51.738;19.472;2023-05-03T11:17:12;23.50;66.20
18412;DHT22;27097;51.738;19.472;2023-05-03T11:19:41;23.50;66.10
18412;DHT22;27097;51.738;19.472;2023-05-03T11:22:09;23.50;67.10
18412;DHT22;27097;51.738;19.472;2023-05-03T11:24:36;23.50;64.00
18412;DHT22;27097;51.738;19.472;2023-05-03T11:27:05;23.50;67.30
18412;DHT22;27097;51.738;19.472;2023-05-03T11:29:32;23.50;64.20
18412;DHT22;27097;51.738;19.472;2023-05-03T11:31:59;23.50;66.30
18412;DHT22;27097;51.738;19.472;2023-05-03T11:34:26;23.50;64.50
18412;DHT22;27097;51.738;19.472;2023-05-03T11:36:53;23.50;65.30
18412;DHT22;27097;51.738;19.472;2023-05-03T11:39:20;23.50;62.70
18412;DHT22;27097;51.738;19.472;2023-05-03T11:42:00;23.60;63.80
18412;DHT22;27097;51.738;19.472;2023-05-03T11:44:30;23.60;63.50
18412;DHT22;27097;51.738;19.472;2023-05-03T11:46:57;23.60;64.50
18412;DHT22;27097;51.738;19.472;2023-05-03T11:49:24;23.60;61.40
18412;DHT22;27097;51.738;19.472;2023-05-03T11:51:51;23.60;65.50
18412;DHT22;27097;51.738;19.472;2023-05-03T11:54:18;23.60;65.10
18412;DHT22;27097;51.738;19.472;2023-05-03T11:56:46;23.60;66.90
18412;DHT22;27097;51.738;19.472;2023-05-03T11:59:13;23.50;66.30
18412;DHT22;27097;51.738;19.472;2023-05-03T12:01:41;23.50;63.40
18412;DHT22;27097;51.738;19.472;2023-05-03T12:04:10;23.40;62.90
18412;DHT22;27097;51.738;19.472;2023-05-03T12:06:37;23.40;61.30
18412;DHT22;27097;51.738;19.472;2023-05-03T12:09:13;23.40;61.70
18412;DHT22;27097;51.738;19.472;2023-05-03T12:11:40;23.40;61.10
18412;DHT22;27097;51.738;19.472;2023-05-03T12:14:08;23.40;57.40
18412;DHT22;27097;51.738;19.472;2023-05-03T12:16:46;23.40;61.10
18412;DHT22;27097;51.738;19.472;2023-05-03T12:19:24;23.40;61.20
18412;DHT22;27097;51.738;19.472;2023-05-03T12:21:51;23.40;65.50
18412;DHT22;27097;51.738;19.472;2023-05-03T12:24:18;23.40;63.90
18412;DHT22;27097;51.738;19.472;2023-05-03T12:26:48;23.40;62.90
18412;DHT22;27097;51.738;19.472;2023-05-03T12:29:15;23.40;63.80
18412;DHT22;27097;51.738;19.472;2023-05-03T12:31:42;23.40;66.00
18412;DHT22;27097;51.738;19.472;2023-05-03T12:34:11;23.40;64.70
18412;DHT22;27097;51.738;19.472;2023-05-03T12:36:39;23.40;63.40
18412;DHT22;27097;51.738;19.472;2023-05-03T12:39:08;23.30;64.00
18412;DHT22;27097;51.738;19.472;2023-05-03T12:41:35;23.30;62.50
18412;DHT22;27097;51.738;19.472;2023-05-03T12:44:02;23.30;61.80
18412;DHT22;27097;51.738;19.472;2023-05-03T12:46:29;23.30;63.20
18412;DHT22;27097;51.738;19.472;2023-05-03T12:48:55;23.30;61.00
18412;DHT22;27097;51.738;19.472;2023-05-03T12:51:24;23.30;61.30
18412;DHT22;27097;51.738;19.472;2023-05-03T12:53:52;23.30;60.70
18412;DHT22;27097;51.738;19.472;2023-05-03T12:56:18;23.30;61.70
18412;DHT22;27097;51.738;19.472;2023-05-03T12:58:46;23.30;62.70
18412;DHT22;27097;51.738;19.472;2023-05-03T13:01:14;23.20;59.40
18412;DHT22;27097;51.738;19.472;2023-05-03T13:03:41;23.20;60.70
18412;DHT22;27097;51.738;19.472;2023-05-03T13:06:08;23.20;61.40
18412;DHT22;27097;51.738;19.472;2023-05-03T13:08:36;23.20;61.50
18412;DHT22;27097;51.738;19.472;2023-05-03T13:11:03;23.20;63.30
18412;DHT22;27097;51.738;19.472;2023-05-03T13:13:30;23.10;63.70
18412;DHT22;27097;51.738;19.472;2023-05-03T13:15:57;23.10;59.30
18412;DHT22;27097;51.738;19.472;2023-05-03T13:18:24;23.10;61.10
18412;DHT22;27097;51.738;19.472;2023-05-03T13:20:51;23.10;61.60
18412;DHT22;27097;51.738;19.472;2023-05-03T13:23:18;23.00;61.40
18412;DHT22;27097;51.738;19.472;2023-05-03T13:25:46;23.10;61.30
18412;DHT22;27097;51.738;19.472;2023-05-03T13:28:13;23.10;61.90
18412;DHT22;27097;51.738;19.472;2023-05-03T13:30:44;23.10;61.50
18412;DHT22;27097;51.738;19.472;2023-05-03T13:33:11;23.10;61.60
18412;DHT22;27097;51.738;19.472;2023-05-03T13:35:38;23.10;61.00
18412;DHT22;27097;51.738;19.472;2023-05-03T13:38:09;23.10;56.80
18412;DHT22;27097;51.738;19.472;2023-05-03T13:40:36;23.10;63.10
18412;DHT22;27097;51.738;19.472;2023-05-03T13:43:04;23.10;63.90
18412;DHT22;27097;51.738;19.472;2023-05-03T13:45:31;23.10;62.60
18412;DHT22;27097;51.738;19.472;2023-05-03T13:47:58;23.10;62.30
18412;DHT22;27097;51.738;19.472;2023-05-03T13:50:27;23.00;55.20
18412;DHT22;27097;51.738;19.472;2023-05-03T13:52:54;23.00;55.90
18412;DHT22;27097;51.738;19.472;2023-05-03T13:55:22;22.90;57.30
18412;DHT22;27097;51.738;19.472;2023-05-03T13:57:50;22.90;63.00
18412;DHT22;27097;51.738;19.472;2023-05-03T14:00:19;22.90;59.10
18412;DHT22;27097;51.738;19.472;2023-05-03T14:02:46;22.80;57.30
18412;DHT22;27097;51.738;19.472;2023-05-03T14:05:13;22.80;62.30
18412;DHT22;27097;51.738;19.472;2023-05-03T14:07:41;22.80;58.60
18412;DHT22;27097;51.738;19.472;2023-05-03T14:10:08;22.80;61.40
18412;DHT22;27097;51.738;19.472;2023-05-03T14:12:35;22.80;59.00
18412;DHT22;27097;51.738;19.472;2023-05-03T14:15:02;22.80;55.90
18412;DHT22;27097;51.738;19.472;2023-05-03T14:17:31;22.70;54.30
18412;DHT22;27097;51.738;19.472;2023-05-03T14:19:58;22.70;57.60
18412;DHT22;27097;51.738;19.472;2023-05-03T14:22:25;22.70;60.10
18412;DHT22;27097;51.738;19.472;2023-05-03T14:24:52;22.70;60.90
18412;DHT22;27097;51.738;19.472;2023-05-03T14:27:19;22.70;55.90
18412;DHT22;27097;51.738;19.472;2023-05-03T14:29:46;22.70;55.80
18412;DHT22;27097;51.738;19.472;2023-05-03T14:32:13;22.70;59.80
18412;DHT22;27097;51.738;19.472;2023-05-03T14:34:42;22.70;61.10
18412;DHT22;27097;51.738;19.472;2023-05-03T14:37:08;22.70;62.00
18412;DHT22;27097;51.738;19.472;2023-05-03T14:39:35;22.70;61.40
18412;DHT22;27097;51.738;19.472;2023-05-03T14:42:03;22.70;60.50
18412;DHT22;27097;51.738;19.472;2023-05-03T14:44:30;22.70;60.20
18412;DHT22;27097;51.738;19.472;2023-05-03T14:46:57;22.70;60.30
18412;DHT22;27097;51.738;19.472;2023-05-03T14:52:29;22.60;57.10
18412;DHT22;27097;51.738;19.472;2023-05-03T14:54:56;22.60;60.10
18412;DHT22;27097;51.738;19.472;2023-05-03T14:57:23;22.60;60.10
18412;DHT22;27097;51.738;19.472;2023-05-03T14:59:50;22.60;58.00
18412;DHT22;27097;51.738;19.472;2023-05-03T15:02:16;22.60;54.60
18412;DHT22;27097;51.738;19.472;2023-05-03T15:04:43;22.60;61.10
18412;DHT22;27097;51.738;19.472;2023-05-03T15:07:10;22.60;56.60
18412;DHT22;27097;51.738;19.472;2023-05-03T15:15:22;22.50;62.40
18412;DHT22;27097;51.738;19.472;2023-05-03T15:17:49;22.60;57.70
18412;DHT22;27097;51.738;19.472;2023-05-03T15:20:16;22.50;58.00
18412;DHT22;27097;51.738;19.472;2023-05-03T15:25:26;22.50;56.40
18412;DHT22;27097;51.738;19.472;2023-05-03T15:27:53;22.50;57.50
18412;DHT22;27097;51.738;19.472;2023-05-03T15:30:19;22.50;55.80
18412;DHT22;27097;51.738;19.472;2023-05-03T15:32:48;22.50;55.60
18412;DHT22;27097;51.738;19.472;2023-05-03T15:35:15;22.50;57.00
18412;DHT22;27097;51.738;19.472;2023-05-03T15:37:41;22.50;58.10
18412;DHT22;27097;51.738;19.472;2023-05-03T15:40:09;22.40;55.90
18412;DHT22;27097;51.738;19.472;2023-05-03T15:42:37;22.40;53.70
18412;DHT22;27097;51.738;19.472;2023-05-03T15:45:06;22.40;56.20
18412;DHT22;27097;51.738;19.472;2023-05-03T15:47:34;22.40;59.70
18412;DHT22;27097;51.738;19.472;2023-05-03T15:50:03;22.40;56.00
18412;DHT22;27097;51.738;19.472;2023-05-03T15:52:30;22.40;55.40
18412;DHT22;27097;51.738;19.472;2023-05-03T15:54:57;22.40;52.40
18412;DHT22;27097;51.738;19.472;2023-05-03T15:57:24;22.40;55.40
18412;DHT22;27097;51.738;19.472;2023-05-03T15:59:51;22.30;53.70
18412;DHT22;27097;51.738;19.472;2023-05-03T16:02:19;22.30;55.60